sensor_id;sensor_type;location;lat;lon;timestamp;temperature;humidity
7572;DHT22;3827;49.928;8.548;2023-03-01T00:01:39;-1.20;99.90
7572;DHT22;3827;49.928;8.548;2023-03-01T00:04:06;-1.20;99.90
7572;DHT22;3827;49.928;8.548;2023-03-01T00:06:33;-1.20;99.90
7572;DHT22;3827;49.928;8.548;2023-03-01T00:09:01;-1.20;99.90
7572;DHT22;3827;49.928;8.548;2023-03-01T00:11:30;-1.20;99.90
7572;DHT22;3827;49.928;8.548;2023-03-01T00:13:59;-1.20;99.90
7572;DHT22;3827;49.928;8.548;2023-03-01T00:16:29;-1.20;99.90
7572;DHT22;3827;49.928;8.548;2023-03-01T00:18:57;-1.20;99.90
7572;DHT22;3827;49.928;8.548;2023-03-01T00:21:24;-1.30;99.90
7572;DHT22;3827;49.928;8.548;2023-03-01T00:23:52;-1.30;99.90
7572;DHT22;3827;49.928;8.548;2023-03-01T00:26:22;-1.30;99.90
7572;DHT22;3827;49.928;8.548;2023-03-01T00:28:49;-1.30;99.90
7572;DHT22;3827;49.928;8.548;2023-03-01T00:31:18;-1.30;99.90
7572;DHT22;3827;49.928;8.548;2023-03-01T00:33:46;-1.30;99.90
7572;DHT22;3827;49.928;8.548;2023-03-01T00:36:14;-1.30;99.90
7572;DHT22;3827;49.928;8.548;2023-03-01T00:38:43;-1.30;99.90
7572;DHT22;3827;49.928;8.548;2023-03-01T00:41:12;-1.40;99.90
7572;DHT22;3827;49.928;8.548;2023-03-01T00:43:41;-1.40;99.90
7572;DHT22;3827;49.928;8.548;2023-03-01T00:46:10;-1.40;99.90
7572;DHT22;3827;49.928;8.548;2023-03-01T00:48:37;-1.50;99.90
7572;DHT22;3827;49.928;8.548;2023-03-01T00:51:06;-1.50;99.90
7572;DHT22;3827;49.928;8.548;2023-03-01T00:53:33;-1.40;99.90
7572;DHT22;3827;49.928;8.548;2023-03-01T00:56:00;-1.50;99.90
7572;DHT22;3827;49.928;8.548;2023-03-01T00:58:27;-1.50;99.90
7572;DHT22;3827;49.928;8.548;2023-03-01T01:00:55;-1.50;99.90
7572;DHT22;3827;49.928;8.548;2023-03-01T01:03:23;-1.60;99.90
7572;DHT22;3827;49.928;8.548;2023-03-01T01:05:50;-1.50;99.90
7572;DHT22;3827;49.928;8.548;2023-03-01T01:08:17;-1.50;99.90
7572;DHT22;3827;49.928;8.548;2023-03-01T01:10:44;-1.50;99.90
7572;DHT22;3827;49.928;8.548;2023-03-01T01:13:11;-1.40;99.90
7572;DHT22;3827;49.928;8.548;2023-03-01T01:15:39;-1.40;99.90
7572;DHT22;3827;49.928;8.548;2023-03-01T01:18:07;-1.50;99.90
7572;DHT22;3827;49.928;8.548;2023-03-01T01:20:35;-1.50;99.90
7572;DHT22;3827;49.928;8.548;2023-03-01T01:23:05;-1.50;99.90
7572;DHT22;3827;49.928;8.548;2023-03-01T01:25:34;-1.50;99.90
7572;DHT22;3827;49.928;8.548;2023-03-01T01:28:01;-1.50;99.90
7572;DHT22;3827;49.928;8.548;2023-03-01T01:30:28;-1.50;99.90
7572;DHT22;3827;49.928;8.548;2023-03-01T01:32:55;-1.50;99.90
7572;DHT22;3827;49.928;8.548;2023-03-01T01:35:23;-1.50;99.90
7572;DHT22;3827;49.928;8.548;2023-03-01T01:37:50;-1.50;99.90
7572;DHT22;3827;49.928;8.548;2023-03-01T01:40:17;-1.40;99.90
7572;DHT22;3827;49.928;8.548;2023-03-01T01:42:43;-1.50;99.90
7572;DHT22;3827;49.928;8.548;2023-03-01T01:45:27;-1.50;99.90
7572;DHT22;3827;49.928;8.548;2023-03-01T01:47:57;-1.50;99.90
7572;DHT22;3827;49.928;8.548;2023-03-01T01:50:27;-1.40;99.90
7572;DHT22;3827;49.928;8.548;2023-03-01T01:53:06;-1.40;99.90
7572;DHT22;3827;49.928;8.548;2023-03-01T01:55:36;-1.40;99.90
7572;DHT22;3827;49.928;8.548;2023-03-01T01:58:06;-1.30;99.90
7572;DHT22;3827;49.928;8.548;2023-03-01T02:00:33;-1.30;99.90
7572;DHT22;3827;49.928;8.548;2023-03-01T02:03:03;-1.30;99.90
7572;DHT22;3827;49.928;8.548;2023-03-01T02:05:38;-1.30;99.90
7572;DHT22;3827;49.928;8.548;2023-03-01T02:08:10;-1.30;99.90
7572;DHT22;3827;49.928;8.548;2023-03-01T02:10:38;-1.30;99.90
7572;DHT22;3827;49.928;8.548;2023-03-01T02:13:06;-1.30;99.90
7572;DHT22;3827;49.928;8.548;2023-03-01T02:15:34;-1.30;99.90
7572;DHT22;3827;49.928;8.548;2023-03-01T02:18:02;-1.30;99.90
7572;DHT22;3827;49.928;8.548;2023-03-01T02:20:36;-1.10;99.90
7572;DHT22;3827;49.928;8.548;2023-03-01T02:23:07;-1.30;99.90
7572;DHT22;3827;49.928;8.548;2023-03-01T02:25:40;-1.30;99.90
7572;DHT22;3827;49.928;8.548;2023-03-01T02:28:23;-1.40;99.90
7572;DHT22;3827;49.928;8.548;2023-03-01T02:30:50;-1.30;99.90
7572;DHT22;3827;49.928;8.548;2023-03-01T02:33:36;-1.30;99.90
7572;DHT22;3827;49.928;8.548;2023-03-01T02:36:07;-1.30;99.90
7572;DHT22;3827;49.928;8.548;2023-03-01T02:38:35;-1.30;99.90
7572;DHT22;3827;49.928;8.548;2023-03-01T02:41:02;-1.30;99.90
7572;DHT22;3827;49.928;8.548;2023-03-01T02:43:33;-1.30;99.90
7572;DHT22;3827;49.928;8.548;2023-03-01T02:46:06;-1.20;99.90
7572;DHT22;3827;49.928;8.548;2023-03-01T02:48:41;-1.20;99.90
7572;DHT22;3827;49.928;8.548;2023-03-01T02:51:21;-1.20;99.90
7572;DHT22;3827;49.928;8.548;2023-03-01T02:53:57;-1.20;99.90
7572;DHT22;3827;49.928;8.548;2023-03-01T02:56:26;-1.20;99.90
7572;DHT22;3827;49.928;8.548;2023-03-01T02:58:54;-1.20;99.90
7572;DHT22;3827;49.928;8.548;2023-03-01T03:01:26;-1.20;99.90
7572;DHT22;3827;49.928;8.548;2023-03-01T03:04:02;-1.30;99.90
7572;DHT22;3827;49.928;8.548;2023-03-01T03:06:29;-1.30;99.90
7572;DHT22;3827;49.928;8.548;2023-03-01T03:08:56;-1.30;99.90
7572;DHT22;3827;49.928;8.548;2023-03-01T03:11:23;-1.30;99.90
7572;DHT22;3827;49.928;8.548;2023-03-01T03:13:50;-1.30;99.90
7572;DHT22;3827;49.928;8.548;2023-03-01T03:16:18;-1.30;99.90
7572;DHT22;3827;49.928;8.548;2023-03-01T03:18:45;-1.40;99.90
7572;DHT22;3827;49.928;8.548;2023-03-01T03:21:13;-1.40;99.90
7572;DHT22;3827;49.928;8.548;2023-03-01T03:23:40;-1.40;99.90
7572;DHT22;3827;49.928;8.548;2023-03-01T03:26:06;-1.30;99.90
7572;DHT22;3827;49.928;8.548;2023-03-01T03:28:34;-1.40;99.90
7572;DHT22;3827;49.928;8.548;2023-03-01T03:31:06;-1.40;99.90
7572;DHT22;3827;49.928;8.548;2023-03-01T03:33:34;-1.30;99.90
7572;DHT22;3827;49.928;8.548;2023-03-01T03:36:01;-1.30;99.90
7572;DHT22;3827;49.928;8.548;2023-03-01T03:38:27;-1.30;99.90
7572;DHT22;3827;49.928;8.548;2023-03-01T03:41:00;-1.30;99.90
7572;DHT22;3827;49.928;8.548;2023-03-01T03:43:28;-1.30;99.90
7572;DHT22;3827;49.928;8.548;2023-03-01T03:45:55;-1.20;99.90
7572;DHT22;3827;49.928;8.548;2023-03-01T03:48:23;-1.20;99.90
7572;DHT22;3827;49.928;8.548;2023-03-01T03:50:53;-1.10;99.90
7572;DHT22;3827;49.928;8.548;2023-03-01T03:53:21;-1.10;99.90
7572;DHT22;3827;49.928;8.548;2023-03-01T03:55:48;-1.10;99.90
7572;DHT22;3827;49.928;8.548;2023-03-01T03:58:17;-1.10;99.90
7572;DHT22;3827;49.928;8.548;2023-03-01T04:00:45;-1.10;99.90
7572;DHT22;3827;49.928;8.548;2023-03-01T04:03:14;-1.10;99.90
7572;DHT22;3827;49.928;8.548;2023-03-01T04:05:42;-1.10;99.90
7572;DHT22;3827;49.928;8.548;2023-03-01T04:08:10;-1.20;99.90
7572;DHT22;3827;49.928;8.548;2023-03-01T04:10:39;-1.20;99.90
7572;DHT22;3827;49.928;8.548;2023-03-01T04:13:07;-1.20;99.90
7572;DHT22;3827;49.928;8.548;2023-03-01T04:15:35;-1.10;99.90
7572;DHT22;3827;49.928;8.548;2023-03-01T04:18:03;-1.20;99.90
7572;DHT22;3827;49.928;8.548;2023-03-01T04:20:32;-1.20;99.90
7572;DHT22;3827;49.928;8.548;2023-03-01T04:23:01;-1.20;99.90
7572;DHT22;3827;49.928;8.548;2023-03-01T04:25:37;-1.20;99.90
7572;DHT22;3827;49.928;8.548;2023-03-01T04:28:04;-1.20;99.90
7572;DHT22;3827;49.928;8.548;2023-03-01T04:30:31;-1.30;99.90
7572;DHT22;3827;49.928;8.548;2023-03-01T04:33:02;-1.30;99.90
7572;DHT22;3827;49.928;8.548;2023-03-01T04:35:29;-1.30;99.90
7572;DHT22;3827;49.928;8.548;2023-03-01T04:37:56;-1.30;99.90
7572;DHT22;3827;49.928;8.548;2023-03-01T04:40:22;-1.20;99.90
7572;DHT22;3827;49.928;8.548;2023-03-01T04:42:51;-1.10;99.90
7572;DHT22;3827;49.928;8.548;2023-03-01T04:45:17;-1.00;99.90
7572;DHT22;3827;49.928;8.548;2023-03-01T04:47:45;-1.00;99.90
7572;DHT22;3827;49.928;8.548;2023-03-01T04:50:14;-1.00;99.90
7572;DHT22;3827;49.928;8.548;2023-03-01T04:52:42;-1.00;99.90
7572;DHT22;3827;49.928;8.548;2023-03-01T04:55:09;-1.00;99.90
7572;DHT22;3827;49.928;8.548;2023-03-01T04:57:36;-1.00;99.90
7572;DHT22;3827;49.928;8.548;2023-03-01T05:00:07;-1.00;99.90
7572;DHT22;3827;49.928;8.548;2023-03-01T05:02:46;-1.10;99.90
7572;DHT22;3827;49.928;8.548;2023-03-01T05:05:14;-1.10;99.90
7572;DHT22;3827;49.928;8.548;2023-03-01T05:07:40;-1.10;99.90
7572;DHT22;3827;49.928;8.548;2023-03-01T05:10:09;-1.10;99.90
7572;DHT22;3827;49.928;8.548;2023-03-01T05:12:36;-1.10;99.90
7572;DHT22;3827;49.928;8.548;2023-03-01T05:15:06;-1.10;99.90
7572;DHT22;3827;49.928;8.548;2023-03-01T05:17:33;-1.10;99.90
7572;DHT22;3827;49.928;8.548;2023-03-01T05:20:00;-1.10;99.90
7572;DHT22;3827;49.928;8.548;2023-03-01T05:22:31;-1.10;99.90
7572;DHT22;3827;49.928;8.548;2023-03-01T05:24:58;-1.10;99.90
7572;DHT22;3827;49.928;8.548;2023-03-01T05:27:24;-1.10;99.90
7572;DHT22;3827;49.928;8.548;2023-03-01T05:29:51;-1.10;99.90
7572;DHT22;3827;49.928;8.548;2023-03-01T05:32:19;-1.10;99.90
7572;DHT22;3827;49.928;8.548;2023-03-01T05:34:47;-1.10;99.90
7572;DHT22;3827;49.928;8.548;2023-03-01T05:37:14;-1.10;99.90
7572;DHT22;3827;49.928;8.548;2023-03-01T05:39:40;-1.10;99.90
7572;DHT22;3827;49.928;8.548;2023-03-01T05:42:10;-1.10;99.90
7572;DHT22;3827;49.928;8.548;2023-03-01T05:44:37;-1.10;99.90
7572;DHT22;3827;49.928;8.548;2023-03-01T05:47:04;-1.10;99.90
7572;DHT22;3827;49.928;8.548;2023-03-01T05:49:33;-1.10;99.90
7572;DHT22;3827;49.928;8.548;2023-03-01T05:52:00;-1.10;99.90
7572;DHT22;3827;49.928;8.548;2023-03-01T05:54:27;-1.20;99.90
7572;DHT22;3827;49.928;8.548;2023-03-01T05:56:53;-1.20;99.90
7572;DHT22;3827;49.928;8.548;2023-03-01T05:59:21;-1.20;99.90
7572;DHT22;3827;49.928;8.548;2023-03-01T06:01:48;-1.20;99.90
7572;DHT22;3827;49.928;8.548;2023-03-01T06:04:15;-1.20;99.90
7572;DHT22;3827;49.928;8.548;2023-03-01T06:06:43;-1.30;99.90
7572;DHT22;3827;49.928;8.548;2023-03-01T06:09:10;-1.30;99.90
7572;DHT22;3827;49.928;8.548;2023-03-01T06:11:37;-1.30;99.90
7572;DHT22;3827;49.928;8.548;2023-03-01T06:14:05;-1.30;99.90
7572;DHT22;3827;49.928;8.548;2023-03-01T06:16:33;-1.30;99.90
7572;DHT22;3827;49.928;8.548;2023-03-01T06:19:00;-1.30;99.90
7572;DHT22;3827;49.928;8.548;2023-03-01T06:21:26;-1.30;99.90
7572;DHT22;3827;49.928;8.548;2023-03-01T06:23:54;-1.30;99.90
7572;DHT22;3827;49.928;8.548;2023-03-01T06:26:21;-1.30;99.90
7572;DHT22;3827;49.928;8.548;2023-03-01T06:28:48;-1.30;99.90
7572;DHT22;3827;49.928;8.548;2023-03-01T06:31:15;-1.30;99.90
7572;DHT22;3827;49.928;8.548;2023-03-01T06:33:42;-1.30;99.90
7572;DHT22;3827;49.928;8.548;2023-03-01T06:36:10;-1.30;99.90
7572;DHT22;3827;49.928;8.548;2023-03-01T06:38:37;-1.30;99.90
7572;DHT22;3827;49.928;8.548;2023-03-01T06:41:05;-1.30;99.90
7572;DHT22;3827;49.928;8.548;2023-03-01T06:43:32;-1.30;99.90
7572;DHT22;3827;49.928;8.548;2023-03-01T06:45:59;-1.20;99.90
7572;DHT22;3827;49.928;8.548;2023-03-01T06:48:26;-1.30;99.90
7572;DHT22;3827;49.928;8.548;2023-03-01T06:50:53;-1.20;99.90
7572;DHT22;3827;49.928;8.548;2023-03-01T06:53:20;-1.00;99.90
7572;DHT22;3827;49.928;8.548;2023-03-01T06:55:47;-1.20;99.90
7572;DHT22;3827;49.928;8.548;2023-03-01T06:58:15;-1.20;99.90
7572;DHT22;3827;49.928;8.548;2023-03-01T07:00:42;-1.20;99.90
7572;DHT22;3827;49.928;8.548;2023-03-01T07:03:09;-1.20;99.90
7572;DHT22;3827;49.928;8.548;2023-03-01T07:05:36;-1.20;99.90
7572;DHT22;3827;49.928;8.548;2023-03-01T07:08:04;-1.10;99.90
7572;DHT22;3827;49.928;8.548;2023-03-01T07:10:31;-1.10;99.90
7572;DHT22;3827;49.928;8.548;2023-03-01T07:12:58;-1.10;99.90
7572;DHT22;3827;49.928;8.548;2023-03-01T07:15:28;-1.00;99.90
7572;DHT22;3827;49.928;8.548;2023-03-01T07:17:56;-1.00;99.90
7572;DHT22;3827;49.928;8.548;2023-03-01T07:20:22;-0.90;99.90
7572;DHT22;3827;49.928;8.548;2023-03-01T07:22:50;-0.90;99.90
7572;DHT22;3827;49.928;8.548;2023-03-01T07:25:17;-0.90;99.90
7572;DHT22;3827;49.928;8.548;2023-03-01T07:27:49;-0.80;99.90
7572;DHT22;3827;49.928;8.548;2023-03-01T07:30:16;-0.80;99.90
7572;DHT22;3827;49.928;8.548;2023-03-01T07:32:45;-0.80;99.90
7572;DHT22;3827;49.928;8.548;2023-03-01T07:35:12;-0.70;99.90
7572;DHT22;3827;49.928;8.548;2023-03-01T07:37:40;-0.70;99.90
7572;DHT22;3827;49.928;8.548;2023-03-01T07:40:08;-0.70;99.90
7572;DHT22;3827;49.928;8.548;2023-03-01T07:42:35;-0.60;99.90
7572;DHT22;3827;49.928;8.548;2023-03-01T07:45:02;-0.60;99.90
7572;DHT22;3827;49.928;8.548;2023-03-01T07:47:29;-0.50;99.90
7572;DHT22;3827;49.928;8.548;2023-03-01T07:49:57;-0.50;99.90
7572;DHT22;3827;49.928;8.548;2023-03-01T07:52:24;-0.50;99.90
7572;DHT22;3827;49.928;8.548;2023-03-01T07:54:51;-0.50;99.90
7572;DHT22;3827;49.928;8.548;2023-03-01T07:57:18;-0.40;99.90
7572;DHT22;3827;49.928;8.548;2023-03-01T07:59:44;-0.30;99.90
7572;DHT22;3827;49.928;8.548;2023-03-01T08:02:11;-0.30;99.90
7572;DHT22;3827;49.928;8.548;2023-03-01T08:04:38;-0.20;99.90
7572;DHT22;3827;49.928;8.548;2023-03-01T08:07:06;-0.10;99.90
7572;DHT22;3827;49.928;8.548;2023-03-01T08:09:34;0.00;99.90
7572;DHT22;3827;49.928;8.548;2023-03-01T08:12:02;0.10;99.90
7572;DHT22;3827;49.928;8.548;2023-03-01T08:14:30;0.20;99.90
7572;DHT22;3827;49.928;8.548;2023-03-01T08:16:56;0.30;99.90
7572;DHT22;3827;49.928;8.548;2023-03-01T08:19:23;0.50;99.90
7572;DHT22;3827;49.928;8.548;2023-03-01T08:21:50;0.60;99.90
7572;DHT22;3827;49.928;8.548;2023-03-01T08:24:18;0.70;99.90
7572;DHT22;3827;49.928;8.548;2023-03-01T08:26:45;0.90;99.90
7572;DHT22;3827;49.928;8.548;2023-03-01T08:29:12;1.00;99.90
7572;DHT22;3827;49.928;8.548;2023-03-01T08:31:40;1.10;99.90
7572;DHT22;3827;49.928;8.548;2023-03-01T08:34:09;1.20;99.90
7572;DHT22;3827;49.928;8.548;2023-03-01T08:36:38;1.30;99.90
7572;DHT22;3827;49.928;8.548;2023-03-01T08:39:06;1.40;99.90
7572;DHT22;3827;49.928;8.548;2023-03-01T08:41:34;1.50;99.90
7572;DHT22;3827;49.928;8.548;2023-03-01T08:44:01;3.40;99.90
7572;DHT22;3827;49.928;8.548;2023-03-01T08:46:30;1.70;99.90
7572;DHT22;3827;49.928;8.548;2023-03-01T08:48:58;2.00;99.90
7572;DHT22;3827;49.928;8.548;2023-03-01T08:51:25;1.80;99.90
7572;DHT22;3827;49.928;8.548;2023-03-01T08:53:52;1.90;99.90
7572;DHT22;3827;49.928;8.548;2023-03-01T08:56:19;1.90;99.90
7572;DHT22;3827;49.928;8.548;2023-03-01T08:58:48;2.00;99.90
7572;DHT22;3827;49.928;8.548;2023-03-01T09:01:16;2.00;99.90
7572;DHT22;3827;49.928;8.548;2023-03-01T09:03:43;2.10;99.90
7572;DHT22;3827;49.928;8.548;2023-03-01T09:06:11;2.10;99.90
7572;DHT22;3827;49.928;8.548;2023-03-01T09:08:39;2.20;99.90
7572;DHT22;3827;49.928;8.548;2023-03-01T09:11:09;2.30;99.90
7572;DHT22;3827;49.928;8.548;2023-03-01T09:13:36;2.50;99.90
7572;DHT22;3827;49.928;8.548;2023-03-01T09:16:06;2.50;99.90
7572;DHT22;3827;49.928;8.548;2023-03-01T09:18:34;2.70;99.90
7572;DHT22;3827;49.928;8.548;2023-03-01T09:21:02;2.80;99.90
7572;DHT22;3827;49.928;8.548;2023-03-01T09:23:32;3.00;99.90
7572;DHT22;3827;49.928;8.548;2023-03-01T09:25:59;3.00;99.90
7572;DHT22;3827;49.928;8.548;2023-03-01T09:28:26;3.00;99.90
7572;DHT22;3827;49.928;8.548;2023-03-01T09:30:53;3.10;99.90
7572;DHT22;3827;49.928;8.548;2023-03-01T09:33:21;3.20;99.90
7572;DHT22;3827;49.928;8.548;2023-03-01T09:35:48;3.20;99.90
7572;DHT22;3827;49.928;8.548;2023-03-01T09:38:15;3.30;99.90
7572;DHT22;3827;49.928;8.548;2023-03-01T09:40:42;3.70;99.90
7572;DHT22;3827;49.928;8.548;2023-03-01T09:43:15;3.70;99.90
7572;DHT22;3827;49.928;8.548;2023-03-01T09:45:46;3.40;99.90
7572;DHT22;3827;49.928;8.548;2023-03-01T09:48:16;3.60;99.90
7572;DHT22;3827;49.928;8.548;2023-03-01T09:50:45;3.70;99.90
7572;DHT22;3827;49.928;8.548;2023-03-01T09:53:16;3.70;99.90
7572;DHT22;3827;49.928;8.548;2023-03-01T09:55:45;3.80;99.90
7572;DHT22;3827;49.928;8.548;2023-03-01T09:58:29;3.90;99.90
7572;DHT22;3827;49.928;8.548;2023-03-01T10:01:01;4.10;99.90
7572;DHT22;3827;49.928;8.548;2023-03-01T10:03:34;4.20;99.90
7572;DHT22;3827;49.928;8.548;2023-03-01T10:06:06;4.20;99.90
7572;DHT22;3827;49.928;8.548;2023-03-01T10:08:39;4.40;99.90
7572;DHT22;3827;49.928;8.548;2023-03-01T10:11:19;4.30;99.90
7572;DHT22;3827;49.928;8.548;2023-03-01T10:13:50;4.40;99.90
7572;DHT22;3827;49.928;8.548;2023-03-01T10:16:22;4.50;99.90
7572;DHT22;3827;49.928;8.548;2023-03-01T10:18:56;4.70;99.90
7572;DHT22;3827;49.928;8.548;2023-03-01T10:21:28;4.60;99.90
7572;DHT22;3827;49.928;8.548;2023-03-01T10:24:08;4.80;99.90
7572;DHT22;3827;49.928;8.548;2023-03-01T10:26:48;4.90;99.90
7572;DHT22;3827;49.928;8.548;2023-03-01T10:29:22;5.10;99.90
7572;DHT22;3827;49.928;8.548;2023-03-01T10:31:51;5.00;99.90
7572;DHT22;3827;49.928;8.548;2023-03-01T10:34:21;5.10;99.90
7572;DHT22;3827;49.928;8.548;2023-03-01T10:36:51;5.10;99.90
7572;DHT22;3827;49.928;8.548;2023-03-01T10:39:21;5.30;99.90
7572;DHT22;3827;49.928;8.548;2023-03-01T10:41:57;5.70;99.90
7572;DHT22;3827;49.928;8.548;2023-03-01T10:44:45;5.40;99.90
7572;DHT22;3827;49.928;8.548;2023-03-01T10:47:18;5.40;99.90
7572;DHT22;3827;49.928;8.548;2023-03-01T10:49:58;5.40;99.90
7572;DHT22;3827;49.928;8.548;2023-03-01T10:52:29;5.50;99.90
7572;DHT22;3827;49.928;8.548;2023-03-01T10:54:59;5.70;99.90
7572;DHT22;3827;49.928;8.548;2023-03-01T10:57:44;5.80;99.90
7572;DHT22;3827;49.928;8.548;2023-03-01T11:00:18;5.70;99.90
7572;DHT22;3827;49.928;8.548;2023-03-01T11:02:49;5.70;99.90
7572;DHT22;3827;49.928;8.548;2023-03-01T11:05:19;5.50;99.90
7572;DHT22;3827;49.928;8.548;2023-03-01T11:07:50;5.80;99.90
7572;DHT22;3827;49.928;8.548;2023-03-01T11:10:20;6.10;99.90
7572;DHT22;3827;49.928;8.548;2023-03-01T11:12:47;6.10;99.90
7572;DHT22;3827;49.928;8.548;2023-03-01T11:15:24;6.30;99.90
7572;DHT22;3827;49.928;8.548;2023-03-01T11:17:52;6.40;99.90
7572;DHT22;3827;49.928;8.548;2023-03-01T11:20:29;6.60;99.90
7572;DHT22;3827;49.928;8.548;2023-03-01T11:23:01;6.80;99.90
7572;DHT22;3827;49.928;8.548;2023-03-01T11:25:31;7.10;99.90
7572;DHT22;3827;49.928;8.548;2023-03-01T11:28:01;7.10;99.90
7572;DHT22;3827;49.928;8.548;2023-03-01T11:30:32;6.90;99.90
7572;DHT22;3827;49.928;8.548;2023-03-01T11:33:13;6.80;99.90
7572;DHT22;3827;49.928;8.548;2023-03-01T11:35:46;6.90;99.90
7572;DHT22;3827;49.928;8.548;2023-03-01T11:38:21;7.00;99.90
7572;DHT22;3827;49.928;8.548;2023-03-01T11:40:52;7.10;99.90
7572;DHT22;3827;49.928;8.548;2023-03-01T11:43:28;7.20;99.90
7572;DHT22;3827;49.928;8.548;2023-03-01T11:46:27;7.60;99.90
7572;DHT22;3827;49.928;8.548;2023-03-01T11:49:05;7.40;99.90
7572;DHT22;3827;49.928;8.548;2023-03-01T11:51:52;7.70;99.90
7572;DHT22;3827;49.928;8.548;2023-03-01T11:54:31;7.80;99.90
7572;DHT22;3827;49.928;8.548;2023-03-01T11:57:06;8.00;99.90
7572;DHT22;3827;49.928;8.548;2023-03-01T12:00:02;8.20;99.90
7572;DHT22;3827;49.928;8.548;2023-03-01T12:03:06;8.10;99.90
7572;DHT22;3827;49.928;8.548;2023-03-01T12:06:02;8.30;99.90
7572;DHT22;3827;49.928;8.548;2023-03-01T12:08:35;8.50;99.90
7572;DHT22;3827;49.928;8.548;2023-03-01T12:11:16;8.80;99.90
7572;DHT22;3827;49.928;8.548;2023-03-01T12:22:51;9.10;99.90
7572;DHT22;3827;49.928;8.548;2023-03-01T12:25:25;9.70;99.90
7572;DHT22;3827;49.928;8.548;2023-03-01T12:28:19;9.50;99.90
7572;DHT22;3827;49.928;8.548;2023-03-01T12:33:47;9.70;99.90
7572;DHT22;3827;49.928;8.548;2023-03-01T12:36:49;9.70;99.90
7572;DHT22;3827;49.928;8.548;2023-03-01T12:39:33;9.70;99.90
7572;DHT22;3827;49.928;8.548;2023-03-01T12:42:28;10.00;99.90
7572;DHT22;3827;49.928;8.548;2023-03-01T12:45:22;9.80;99.90
7572;DHT22;3827;49.928;8.548;2023-03-01T12:48:02;10.10;99.90
7572;DHT22;3827;49.928;8.548;2023-03-01T12:50:39;10.20;99.90
7572;DHT22;3827;49.928;8.548;2023-03-01T12:53:19;10.30;99.90
7572;DHT22;3827;49.928;8.548;2023-03-01T12:55:47;10.10;99.90
7572;DHT22;3827;49.928;8.548;2023-03-01T12:58:24;9.70;99.90
7572;DHT22;3827;49.928;8.548;2023-03-01T13:01:03;9.90;99.90
7572;DHT22;3827;49.928;8.548;2023-03-01T13:03:38;10.30;99.90
7572;DHT22;3827;49.928;8.548;2023-03-01T13:06:15;10.10;99.90
7572;DHT22;3827;49.928;8.548;2023-03-01T13:08:50;10.20;99.90
7572;DHT22;3827;49.928;8.548;2023-03-01T13:11:23;10.10;99.90
7572;DHT22;3827;49.928;8.548;2023-03-01T13:13:50;10.10;99.90
7572;DHT22;3827;49.928;8.548;2023-03-01T13:19:10;10.00;99.90
7572;DHT22;3827;49.928;8.548;2023-03-01T13:21:38;9.80;99.90
7572;DHT22;3827;49.928;8.548;2023-03-01T13:24:24;9.90;99.90
7572;DHT22;3827;49.928;8.548;2023-03-01T13:27:21;9.60;99.90
7572;DHT22;3827;49.928;8.548;2023-03-01T13:29:51;9.80;99.90
7572;DHT22;3827;49.928;8.548;2023-03-01T13:32:22;9.90;99.90
7572;DHT22;3827;49.928;8.548;2023-03-01T13:34:54;9.90;99.90
7572;DHT22;3827;49.928;8.548;2023-03-01T13:37:27;9.80;99.90
7572;DHT22;3827;49.928;8.548;2023-03-01T13:39:56;10.20;99.90
7572;DHT22;3827;49.928;8.548;2023-03-01T13:42:42;10.10;99.90
7572;DHT22;3827;49.928;8.548;2023-03-01T13:45:34;10.10;99.90
7572;DHT22;3827;49.928;8.548;2023-03-01T13:48:10;9.70;99.90
7572;DHT22;3827;49.928;8.548;2023-03-01T13:50:43;9.80;99.90
7572;DHT22;3827;49.928;8.548;2023-03-01T13:53:15;9.80;99.90
7572;DHT22;3827;49.928;8.548;2023-03-01T13:55:45;9.90;99.90
7572;DHT22;3827;49.928;8.548;2023-03-01T13:58:21;10.10;99.90
7572;DHT22;3827;49.928;8.548;2023-03-01T14:00:55;10.20;99.90
7572;DHT22;3827;49.928;8.548;2023-03-01T14:03:24;10.30;99.90
7572;DHT22;3827;49.928;8.548;2023-03-01T14:05:59;9.80;99.90
7572;DHT22;3827;49.928;8.548;2023-03-01T14:08:28;9.60;99.90
7572;DHT22;3827;49.928;8.548;2023-03-01T14:11:20;9.50;99.90
7572;DHT22;3827;49.928;8.548;2023-03-01T14:14:06;9.70;99.90
7572;DHT22;3827;49.928;8.548;2023-03-01T14:16:45;9.70;99.90
7572;DHT22;3827;49.928;8.548;2023-03-01T14:19:19;9.60;99.90
7572;DHT22;3827;49.928;8.548;2023-03-01T14:21:58;9.80;99.90
7572;DHT22;3827;49.928;8.548;2023-03-01T14:24:27;10.10;99.90
7572;DHT22;3827;49.928;8.548;2023-03-01T14:26:54;10.30;99.90
7572;DHT22;3827;49.928;8.548;2023-03-01T14:29:26;10.10;99.90
7572;DHT22;3827;49.928;8.548;2023-03-01T14:31:53;10.10;99.90
7572;DHT22;3827;49.928;8.548;2023-03-01T14:34:24;9.90;99.90
7572;DHT22;3827;49.928;8.548;2023-03-01T14:36:51;9.70;99.90
7572;DHT22;3827;49.928;8.548;2023-03-01T14:39:20;9.70;99.90
7572;DHT22;3827;49.928;8.548;2023-03-01T14:41:49;9.70;99.90
7572;DHT22;3827;49.928;8.548;2023-03-01T14:44:20;9.60;99.90
7572;DHT22;3827;49.928;8.548;2023-03-01T14:46:52;9.70;99.90
7572;DHT22;3827;49.928;8.548;2023-03-01T14:49:24;9.70;99.90
7572;DHT22;3827;49.928;8.548;2023-03-01T14:51:53;9.70;99.90
7572;DHT22;3827;49.928;8.548;2023-03-01T14:54:25;9.60;99.90
7572;DHT22;3827;49.928;8.548;2023-03-01T14:56:57;9.70;99.90
7572;DHT22;3827;49.928;8.548;2023-03-01T14:59:24;9.50;99.90
7572;DHT22;3827;49.928;8.548;2023-03-01T15:01:53;9.30;99.90
7572;DHT22;3827;49.928;8.548;2023-03-01T15:04:23;9.20;99.90
7572;DHT22;3827;49.928;8.548;2023-03-01T15:06:52;9.10;99.90
7572;DHT22;3827;49.928;8.548;2023-03-01T15:09:19;9.10;99.90
7572;DHT22;3827;49.928;8.548;2023-03-01T15:11:47;9.20;99.90
7572;DHT22;3827;49.928;8.548;2023-03-01T15:14:39;9.20;99.90
7572;DHT22;3827;49.928;8.548;2023-03-01T15:17:21;9.10;99.90
7572;DHT22;3827;49.928;8.548;2023-03-01T15:19:51;9.20;99.90
7572;DHT22;3827;49.928;8.548;2023-03-01T15:22:18;9.10;99.90
7572;DHT22;3827;49.928;8.548;2023-03-01T15:24:47;9.10;99.90
7572;DHT22;3827;49.928;8.548;2023-03-01T15:27:17;9.00;99.90
7572;DHT22;3827;49.928;8.548;2023-03-01T15:29:49;8.90;99.90
7572;DHT22;3827;49.928;8.548;2023-03-01T15:32:28;8.70;99.90
7572;DHT22;3827;49.928;8.548;2023-03-01T15:34:57;8.60;99.90
7572;DHT22;3827;49.928;8.548;2023-03-01T15:37:40;8.60;99.90
7572;DHT22;3827;49.928;8.548;2023-03-01T15:40:20;8.60;99.90
7572;DHT22;3827;49.928;8.548;2023-03-01T15:42:50;8.60;99.90
7572;DHT22;3827;49.928;8.548;2023-03-01T15:45:22;8.60;99.90
7572;DHT22;3827;49.928;8.548;2023-03-01T15:47:51;8.50;99.90
7572;DHT22;3827;49.928;8.548;2023-03-01T15:50:22;8.80;99.90
7572;DHT22;3827;49.928;8.548;2023-03-01T15:52:49;8.40;99.90
7572;DHT22;3827;49.928;8.548;2023-03-01T15:55:19;8.20;99.90
7572;DHT22;3827;49.928;8.548;2023-03-01T15:57:47;8.10;99.90
7572;DHT22;3827;49.928;8.548;2023-03-01T16:00:15;8.10;99.90
7572;DHT22;3827;49.928;8.548;2023-03-01T16:02:43;8.10;99.90
7572;DHT22;3827;49.928;8.548;2023-03-01T16:05:17;8.00;99.90
7572;DHT22;3827;49.928;8.548;2023-03-01T16:07:46;7.90;99.90
7572;DHT22;3827;49.928;8.548;2023-03-01T16:10:13;7.80;99.90
7572;DHT22;3827;49.928;8.548;2023-03-01T16:12:39;7.80;99.90
7572;DHT22;3827;49.928;8.548;2023-03-01T16:15:15;7.70;99.90
7572;DHT22;3827;49.928;8.548;2023-03-01T16:17:43;7.60;99.90
7572;DHT22;3827;49.928;8.548;2023-03-01T16:20:11;7.60;99.90
7572;DHT22;3827;49.928;8.548;2023-03-01T16:22:41;7.50;99.90
7572;DHT22;3827;49.928;8.548;2023-03-01T16:25:10;7.00;99.90
7572;DHT22;3827;49.928;8.548;2023-03-01T16:27:38;7.30;99.90
7572;DHT22;3827;49.928;8.548;2023-03-01T16:30:06;7.30;99.90
7572;DHT22;3827;49.928;8.548;2023-03-01T16:32:32;7.20;99.90
7572;DHT22;3827;49.928;8.548;2023-03-01T16:34:59;7.10;99.90
7572;DHT22;3827;49.928;8.548;2023-03-01T16:37:26;7.10;99.90
7572;DHT22;3827;49.928;8.548;2023-03-01T16:39:53;6.90;99.90
7572;DHT22;3827;49.928;8.548;2023-03-01T16:42:21;6.90;99.90
7572;DHT22;3827;49.928;8.548;2023-03-01T16:44:48;6.80;99.90
7572;DHT22;3827;49.928;8.548;2023-03-01T16:47:20;6.70;99.90